Time;durP1;ratioP1;P1;durP2;ratioP2;P2;SDS_P1;SDS_P2;PMS_P1;PMS_P2;Temp;Humidity;BMP_temperature;BMP_pressure;BME280_temperature;BME280_humidity;BME280_pressure;Samples;Min_cycle;Max_cycle;Signal;HPM_P1;HPM_P2
2023/10/12 00:00:42;;;;;;;1.80;1.65;;;;;;;-143.29;100.00;62188.47;5071819;28;20111;-89
2023/10/12 00:03:12;;;;;;;2.22;1.63;;;;;;;-143.29;100.00;62188.47;5054061;28;20035;-88
2023/10/12 00:05:38;;;;;;;3.80;2.00;;;;;;;-143.29;100.00;62188.47;5060823;28;20065;-88
2023/10/12 00:08:10;;;;;;;2.90;1.58;;;;;;;-143.29;100.00;62188.47;5034030;28;20025;-88
2023/10/12 00:10:42;;;;;;;2.15;1.30;;;;;;;-143.29;100.00;62188.47;5033318;28;20032;-88
2023/10/12 00:13:11;;;;;;;1.40;1.05;;;;;;;-143.29;100.00;62188.47;5052002;28;20041;-89
2023/10/12 00:15:45;;;;;;;2.50;1.23;;;;;;;-143.29;100.00;62188.47;5051825;28;20031;-89
2023/10/12 00:18:14;;;;;;;1.83;1.08;;;;;;;-143.29;100.00;62188.47;5051759;28;20032;-88
2023/10/12 00:20:40;;;;;;;3.97;1.20;;;;;;;-143.29;100.00;62188.47;5049910;28;20117;-90
2023/10/12 00:23:09;;;;;;;6.90;1.08;;;;;;;-143.29;100.00;62188.47;5051320;28;20099;-89
2023/10/12 00:25:47;;;;;;;3.28;1.63;;;;;;;-143.29;100.00;62188.47;5051869;28;20021;-89
2023/10/12 00:28:20;;;;;;;2.22;1.65;;;;;;;-143.29;100.00;62188.47;5051816;28;20021;-89
2023/10/12 00:30:47;;;;;;;1.92;1.42;;;;;;;-143.29;100.00;62188.47;5051725;28;20024;-88
2023/10/12 00:33:12;;;;;;;7.97;1.92;;;;;;;-143.29;100.00;62188.47;5051494;28;20029;-88
2023/10/12 00:35:38;;;;;;;2.53;1.67;;;;;;;-143.29;100.00;62188.47;5050620;28;20563;-88
2023/10/12 00:38:17;;;;;;;2.67;2.15;;;;;;;-143.29;100.00;62188.47;5051707;28;20017;-88
2023/10/12 00:40:57;;;;;;;2.60;2.10;;;;;;;-143.29;100.00;62188.47;5051603;28;20033;-88
2023/10/12 00:43:31;;;;;;;3.03;2.53;;;;;;;-143.29;100.00;62188.47;5051341;28;20051;-87
2023/10/12 00:45:57;;;;;;;2.58;2.28;;;;;;;-143.29;100.00;62188.47;5051606;28;20021;-88
2023/10/12 00:48:29;;;;;;;3.50;2.17;;;;;;;-143.29;100.00;62188.47;5051576;28;20029;-88
2023/10/12 00:50:56;;;;;;;4.63;1.92;;;;;;;-143.29;100.00;62188.47;5068224;28;20379;-88
2023/10/12 00:53:22;;;;;;;2.10;1.80;;;;;;;-143.29;100.00;62188.47;5075614;28;20024;-88
2023/10/12 00:55:49;;;;;;;2.05;1.80;;;;;;;-143.29;100.00;62188.47;5075588;28;20024;-88
2023/10/12 00:58:16;;;;;;;2.10;1.80;;;;;;;-143.29;100.00;62188.47;5057748;28;20490;-87
2023/10/12 01:00:46;;;;;;;2.42;1.85;;;;;;;-143.29;100.00;62188.47;5075329;28;20029;-88
2023/10/12 01:03:29;;;;;;;2.47;1.80;;;;;;;-143.29;100.00;62188.47;5057378;28;20020;-88
2023/10/12 01:08:43;;;;;;;1.42;1.30;;;;;;;-143.29;100.00;62188.47;5035583;28;20029;-88
2023/10/12 01:13:55;;;;;;;2.65;1.40;;;;;;;-143.29;100.00;62188.47;5035531;28;20017;-88
2023/10/12 01:16:22;;;;;;;3.47;1.52;;;;;;;-143.29;100.00;62188.47;5035303;28;20021;-88
2023/10/12 01:19:05;;;;;;;2.90;1.67;;;;;;;-143.29;100.00;62188.47;5038887;28;20032;-88
2023/10/12 01:21:37;;;;;;;6.18;1.85;;;;;;;-143.29;100.00;62188.47;5054925;28;20509;-88
2023/10/12 01:24:11;;;;;;;2.42;1.58;;;;;;;-143.29;100.00;62188.47;5055150;28;20025;-88
2023/10/12 01:26:37;;;;;;;4.35;1.70;;;;;;;-143.29;100.00;62188.47;5055249;28;20025;-88
2023/10/12 01:29:02;;;;;;;2.35;1.65;;;;;;;-143.29;100.00;62188.47;5055139;28;20021;-88
2023/10/12 01:31:29;;;;;;;2.75;2.05;;;;;;;-143.29;100.00;62188.47;5054894;28;20453;-88
2023/10/12 01:33:55;;;;;;;3.33;1.80;;;;;;;-143.29;100.00;62188.47;5053838;28;20036;-88
2023/10/12 01:36:32;;;;;;;3.10;1.67;;;;;;;-143.29;100.00;62188.47;5054871;28;20040;-88
2023/10/12 01:39:11;;;;;;;3.03;2.05;;;;;;;-143.29;100.00;62188.47;5037032;28;20036;-88
2023/10/12 01:41:42;;;;;;;2.20;2.00;;;;;;;-143.29;100.00;62188.47;5054925;28;20483;-88
2023/10/12 01:44:11;;;;;;;3.47;2.83;;;;;;;-143.29;100.00;62188.47;5054509;28;20108;-88
2023/10/12 01:46:43;;;;;;;3.58;2.75;;;;;;;-143.29;100.00;62188.47;5054693;28;20079;-88
2023/10/12 01:49:10;;;;;;;2.60;2.38;;;;;;;-143.29;100.00;62188.47;5055745;28;20025;-88
2023/10/12 01:51:42;;;;;;;2.30;2.08;;;;;;;-143.29;100.00;62188.47;5054653;28;20033;-88
2023/10/12 01:54:12;;;;;;;3.72;2.75;;;;;;;-143.29;100.00;62188.47;5054622;28;20025;-87
2023/10/12 01:56:38;;;;;;;2.55;2.35;;;;;;;-143.29;100.00;62188.47;5054308;28;20036;-88
2023/10/12 01:59:07;;;;;;;4.13;3.00;;;;;;;-143.29;100.00;62188.47;5054709;28;20395;-88
2023/10/12 02:01:41;;;;;;;3.25;2.53;;;;;;;-143.29;100.00;62188.47;5054382;28;20112;-88
2023/10/12 02:04:06;;;;;;;4.47;2.40;;;;;;;-143.29;100.00;62188.47;5054928;28;20471;-88
2023/10/12 02:06:32;;;;;;;5.25;2.95;;;;;;;-143.29;100.00;62188.47;5053038;28;20058;-87
2023/10/12 02:09:10;;;;;;;2.95;2.50;;;;;;;-143.29;100.00;62188.47;5054230;28;20499;-87
2023/10/12 02:11:53;;;;;;;3.47;2.30;;;;;;;-143.29;100.00;62188.47;5036446;28;20024;-88
2023/10/12 02:14:33;;;;;;;2.80;2.42;;;;;;;-143.29;100.00;62188.47;5054157;28;20033;-87
2023/10/12 02:17:02;;;;;;;2.55;2.35;;;;;;;-143.29;100.00;62188.47;5052753;28;20111;-88
2023/10/12 02:19:33;;;;;;;2.30;2.03;;;;;;;-143.29;100.00;62188.47;5052216;28;20052;-88
2023/10/12 02:22:04;;;;;;;3.47;2.60;;;;;;;-143.29;100.00;62188.47;5053487;28;20399;-88
2023/10/12 02:24:29;;;;;;;3.15;2.33;;;;;;;-143.29;100.00;62188.47;5036004;28;20035;-88
2023/10/12 02:26:55;;;;;;;3.22;2.40;;;;;;;-143.29;100.00;62188.47;5054076;28;20017;-88
2023/10/12 02:29:20;;;;;;;2.72;2.28;;;;;;;-143.29;100.00;62188.47;5053756;28;20390;-88
2023/10/12 02:34:17;;;;;;;2.53;2.25;;;;;;;-143.29;100.00;62188.47;5052707;28;20167;-88
2023/10/12 02:39:41;;;;;;;3.03;2.72;;;;;;;-143.29;100.00;62188.47;5053821;28;20097;-88
2023/10/12 02:47:24;;;;;;;3.25;2.35;;;;;;;-143.29;100.00;62188.47;5053567;28;20048;-88
2023/10/12 02:49:51;;;;;;;2.92;2.55;;;;;;;-143.29;100.00;62188.47;5061557;28;20146;-88
2023/10/12 02:52:20;;;;;;;3.60;2.63;;;;;;;-143.29;100.00;62188.47;5073461;28;20031;-88
2023/10/12 02:54:51;;;;;;;3.40;3.00;;;;;;;-143.29;100.00;62188.47;5073439;28;20072;-88
2023/10/12 02:57:23;;;;;;;3.25;2.55;;;;;;;-143.29;100.00;62188.47;5073205;28;20563;-88
2023/10/12 02:59:56;;;;;;;2.42;2.22;;;;;;;-143.29;100.00;62188.47;5073388;28;20506;-88
2023/10/12 03:02:44;;;;;;;2.88;2.08;;;;;;;-143.29;100.00;62188.47;5073048;28;20024;-88
2023/10/12 03:05:13;;;;;;;3.47;2.60;;;;;;;-143.29;100.00;62188.47;5057351;28;20037;-88
2023/10/12 03:07:39;;;;;;;3.05;2.75;;;;;;;-143.29;100.00;62188.47;5053278;28;20433;-88
2023/10/12 03:10:24;;;;;;;3.63;2.63;;;;;;;-143.29;100.00;62188.47;5035253;28;20108;-88
2023/10/12 03:12:54;;;;;;;2.72;2.45;;;;;;;-143.29;100.00;62188.47;5052982;28;20025;-88
2023/10/12 03:15:21;;;;;;;2.70;2.30;;;;;;;-143.29;100.00;62188.47;5035093;28;20068;-88
2023/10/12 03:17:54;;;;;;;2.30;2.05;;;;;;;-143.29;100.00;62188.47;5052769;28;20021;-88
2023/10/12 03:20:22;;;;;;;5.00;2.78;;;;;;;-143.29;100.00;62188.47;5058823;28;20555;-88
2023/10/12 03:22:52;;;;;;;3.33;2.65;;;;;;;-143.29;100.00;62188.47;5032771;28;20037;-88
2023/10/12 03:25:19;;;;;;;3.65;3.00;;;;;;;-143.29;100.00;62188.47;5032821;28;20029;-88
2023/10/12 03:27:51;;;;;;;3.60;2.67;;;;;;;-143.29;100.00;62188.47;5031633;28;20022;-88
2023/10/12 03:30:17;;;;;;;2.85;2.38;;;;;;;-143.29;100.00;62188.47;5032658;28;20036;-88
2023/10/12 03:32:44;;;;;;;3.88;2.08;;;;;;;-143.29;100.00;62188.47;5032860;28;20479;-88
2023/10/12 03:35:13;;;;;;;2.85;2.55;;;;;;;-143.29;100.00;62188.47;5036016;28;20032;-88
2023/10/12 03:37:51;;;;;;;3.70;2.20;;;;;;;-143.29;100.00;62188.47;5059914;28;20498;-88
2023/10/12 03:43:10;;;;;;;4.93;2.15;;;;;;;-143.29;100.00;62188.47;5052649;28;20581;-88
2023/10/12 03:45:40;;;;;;;2.95;2.13;;;;;;;-143.29;100.00;62188.47;5052465;28;20036;-88
2023/10/12 03:50:57;;;;;;;4.47;2.65;;;;;;;-143.29;100.00;62188.47;5052430;28;20068;-88
2023/10/12 03:53:26;;;;;;;3.33;2.53;;;;;;;-143.29;100.00;62188.47;5052015;28;20029;-88
2023/10/12 03:55:57;;;;;;;3.35;2.38;;;;;;;-143.29;100.00;62188.47;5072211;28;20158;-87
2023/10/12 03:58:24;;;;;;;2.67;2.00;;;;;;;-143.29;100.00;62188.47;5072328;28;20017;-88
2023/10/12 04:01:06;;;;;;;3.17;1.98;;;;;;;-143.29;100.00;62188.47;5072147;28;20108;-88
2023/10/12 04:03:39;;;;;;;2.40;2.05;;;;;;;-143.29;100.00;62188.47;5072072;28;20386;-88
2023/10/12 04:06:15;;;;;;;2.13;1.90;;;;;;;-143.29;100.00;62188.47;5069654;28;20024;-89
2023/10/12 04:08:52;;;;;;;2.90;1.80;;;;;;;-143.29;100.00;62188.47;5072090;28;20028;-88
2023/10/12 04:11:46;;;;;;;2.38;2.00;;;;;;;-143.29;100.00;62188.47;5072076;28;20493;-88
2023/10/12 04:16:45;;;;;;;1.98;1.65;;;;;;;-143.29;100.00;62188.47;5072142;28;20104;-88
2023/10/12 04:19:10;;;;;;;2.42;1.88;;;;;;;-143.29;100.00;62188.47;5071881;28;20032;-88
2023/10/12 04:21:38;;;;;;;2.22;1.90;;;;;;;-143.29;100.00;62188.47;5063655;28;20028;-88
2023/10/12 04:27:06;;;;;;;1.90;1.52;;;;;;;-143.29;100.00;62188.47;5051220;28;20048;-88
2023/10/12 04:29:31;;;;;;;2.03;1.67;;;;;;;-143.29;100.00;62188.47;5051479;28;20410;-88
2023/10/12 04:31:57;;;;;;;1.73;1.52;;;;;;;-143.29;100.00;62188.47;5051645;28;20096;-88
2023/10/12 04:34:26;;;;;;;1.75;1.52;;;;;;;-143.29;100.00;62188.47;5052213;28;20036;-88
2023/10/12 04:37:11;;;;;;;1.83;1.55;;;;;;;-143.29;100.00;62188.47;5051747;28;20527;-89
2023/10/12 04:39:37;;;;;;;1.80;1.52;;;;;;;-143.29;100.00;62188.47;5045858;28;20466;-88
2023/10/12 04:52:16;;;;;;;1.27;1.10;;;;;;;-143.29;100.00;62188.47;5071396;28;20390;-88
2023/10/12 04:57:32;;;;;;;1.08;0.85;;;;;;;-143.29;100.00;62188.47;5051423;28;20017;-89
2023/10/12 05:00:24;;;;;;;1.10;0.90;;;;;;;-143.29;100.00;62188.47;5051535;28;20056;-88
2023/10/12 05:07:54;;;;;;;0.60;0.60;;;;;;;-143.29;100.00;62188.47;5050352;28;20029;-88
2023/10/12 05:10:46;;;;;;;0.85;0.68;;;;;;;-143.29;100.00;62188.47;5033459;28;20453;-88
2023/10/12 05:13:18;;;;;;;1.25;0.68;;;;;;;-143.29;100.00;62188.47;5051295;28;20090;-88
2023/10/12 05:15:43;;;;;;;1.92;0.90;;;;;;;-143.29;100.00;62188.47;5033389;28;20028;-89
2023/10/12 05:18:10;;;;;;;1.02;0.90;;;;;;;-143.29;100.00;62188.47;5051321;28;20037;-88
2023/10/12 05:20:36;;;;;;;2.13;0.80;;;;;;;-143.29;100.00;62188.47;5051084;28;20029;-88
2023/10/12 05:23:03;;;;;;;1.00;0.90;;;;;;;-143.29;100.00;62188.47;5049742;28;20260;-88
2023/10/12 05:25:38;;;;;;;1.30;1.08;;;;;;;-143.29;100.00;62188.47;5051133;28;20246;-88
2023/10/12 05:28:14;;;;;;;2.47;0.95;;;;;;;-143.29;100.00;62188.47;5033363;28;20025;-88
2023/10/12 05:30:55;;;;;;;1.17;0.80;;;;;;;-143.29;100.00;62188.47;5051118;28;20052;-88
2023/10/12 05:35:58;;;;;;;1.08;0.98;;;;;;;-143.29;100.00;62188.47;5051327;28;20479;-88
2023/10/12 05:38:34;;;;;;;1.38;0.90;;;;;;;-143.29;100.00;62188.47;5060130;28;20028;-88
2023/10/12 05:41:02;;;;;;;0.80;0.77;;;;;;;-143.29;100.00;62188.47;5056985;28;20147;-88
2023/10/12 05:43:33;;;;;;;0.90;0.90;;;;;;;-143.29;100.00;62188.47;5072216;28;20028;-88
2023/10/12 05:46:04;;;;;;;0.70;0.70;;;;;;;-143.29;100.00;62188.47;5056608;28;20486;-88
2023/10/12 05:48:33;;;;;;;1.08;0.98;;;;;;;-143.29;100.00;62188.47;5074803;28;20466;-88
2023/10/12 05:50:58;;;;;;;0.90;0.80;;;;;;;-143.29;100.00;62188.47;5074623;28;20051;-88
2023/10/12 05:53:26;;;;;;;9.82;1.67;;;;;;;-143.29;100.00;62188.47;5074444;28;20024;-89
2023/10/12 05:55:52;;;;;;;1.50;1.20;;;;;;;-143.29;100.00;62188.47;5074656;28;20028;-88
2023/10/12 05:58:17;;;;;;;1.20;1.10;;;;;;;-143.29;100.00;62188.47;5071625;28;20023;-88
2023/10/12 06:00:47;;;;;;;0.90;0.90;;;;;;;-143.29;100.00;62188.47;5054205;28;20475;-88
2023/10/12 06:03:15;;;;;;;1.20;0.85;;;;;;;-143.29;100.00;62188.47;5054335;28;20032;-89
2023/10/12 06:05:43;;;;;;;0.98;0.95;;;;;;;-143.29;100.00;62188.47;5054391;28;20021;-89
2023/10/12 06:08:10;;;;;;;1.13;0.98;;;;;;;-143.29;100.00;62188.47;5058232;28;20036;-89
2023/10/12 06:10:42;;;;;;;1.60;1.02;;;;;;;-143.29;100.00;62188.47;5074318;28;20035;-88
2023/10/12 06:13:15;;;;;;;2.85;1.10;;;;;;;-143.29;100.00;62188.47;5074138;28;20073;-89
2023/10/12 06:15:42;;;;;;;2.63;1.48;;;;;;;-143.29;100.00;62188.47;5074188;28;20425;-89
2023/10/12 06:18:21;;;;;;;1.55;1.42;;;;;;;-143.29;100.00;62188.47;5074224;28;20086;-89
2023/10/12 06:20:47;;;;;;;2.47;1.30;;;;;;;-143.29;100.00;62188.47;5074355;28;20470;-89
2023/10/12 06:23:16;;;;;;;2.92;1.45;;;;;;;-143.29;100.00;62188.47;5064485;28;20364;-89
2023/10/12 06:25:44;;;;;;;2.45;1.40;;;;;;;-143.29;100.00;62188.47;5053700;28;20029;-89
2023/10/12 06:28:18;;;;;;;2.58;1.60;;;;;;;-143.29;100.00;62188.47;5053927;28;20021;-89
2023/10/12 06:30:45;;;;;;;2.65;1.30;;;;;;;-143.29;100.00;62188.47;5036028;28;20091;-89
2023/10/12 06:33:15;;;;;;;3.47;1.60;;;;;;;-143.29;100.00;62188.47;5053797;28;20021;-88
2023/10/12 06:38:47;;;;;;;2.60;1.10;;;;;;;-143.29;100.00;62188.47;5050023;28;20044;-89
2023/10/12 06:43:58;;;;;;;3.25;0.90;;;;;;;-143.29;100.00;62188.47;5073893;28;20425;-89
2023/10/12 06:46:28;;;;;;;2.53;1.13;;;;;;;-143.29;100.00;62188.47;5073584;28;20028;-89
2023/10/12 06:49:06;;;;;;;2.15;1.23;;;;;;;-143.29;100.00;62188.47;5054416;28;20038;-88
2023/10/12 06:51:32;;;;;;;3.92;1.65;;;;;;;-143.29;100.00;62188.47;5073280;28;20025;-89
2023/10/12 06:54:08;;;;;;;1.40;0.73;;;;;;;-143.29;100.00;62188.47;5071328;28;20016;-91
2023/10/12 06:56:39;;;;;;;3.53;0.60;;;;;;;-143.29;100.00;62188.47;5073455;28;20056;-90
2023/10/12 07:02:12;;;;;;;5.90;0.60;;;;;;;-143.29;100.00;62188.47;5035270;28;20045;-89
2023/10/12 07:04:38;;;;;;;1.63;0.60;;;;;;;-143.29;100.00;62188.47;5053234;28;20029;-90
2023/10/12 07:07:07;;;;;;;1.73;0.50;;;;;;;-143.29;100.00;62188.47;5051232;28;20048;-89
2023/10/12 07:09:40;;;;;;;2.25;0.60;;;;;;;-143.29;100.00;62188.47;5050763;28;20029;-90
2023/10/12 07:12:14;;;;;;;1.20;0.40;;;;;;;-143.29;100.00;62188.47;5033495;28;20478;-90
2023/10/12 07:14:47;;;;;;;2.72;0.73;;;;;;;-143.29;100.00;62188.47;5016530;28;20386;-89
2023/10/12 07:17:14;;;;;;;1.33;0.40;;;;;;;-143.29;100.00;62188.47;5041639;28;20111;-90
2023/10/12 07:19:55;;;;;;;4.95;1.48;;;;;;;-143.29;100.00;62188.47;5050757;28;20546;-90
2023/10/12 07:22:21;;;;;;;2.40;1.05;;;;;;;-143.29;100.00;62188.47;5050770;28;20052;-90
2023/10/12 07:24:54;;;;;;;2.45;0.60;;;;;;;-143.29;100.00;62188.47;5024431;28;20128;-90
2023/10/12 07:27:22;;;;;;;1.48;0.60;;;;;;;-143.29;100.00;62188.47;5031779;28;20026;-90
2023/10/12 07:30:00;;;;;;;3.38;0.77;;;;;;;-143.29;100.00;62188.47;5038676;28;20028;-90
2023/10/12 07:32:38;;;;;;;1.55;0.60;;;;;;;-143.29;100.00;62188.47;5044927;28;20060;-90
2023/10/12 07:35:42;;;;;;;2.28;1.00;;;;;;;-143.29;100.00;62188.47;5050492;28;20021;-90
2023/10/12 07:37:59;;;;;;;1.48;0.65;;;;;;;-143.29;100.00;62188.47;5049418;28;20037;-90
2023/10/12 07:40:34;;;;;;;3.20;0.55;;;;;;;-143.29;100.00;62188.47;5050624;28;20386;-90
2023/10/12 07:43:07;;;;;;;4.13;0.60;;;;;;;-143.29;100.00;62188.47;5034710;28;20026;-90
2023/10/12 07:45:47;;;;;;;1.23;0.50;;;;;;;-143.29;100.00;62188.47;5014122;28;20383;-90
2023/10/12 07:48:21;;;;;;;0.60;0.40;;;;;;;-143.29;100.00;62188.47;5031732;28;20049;-91
2023/10/12 07:50:47;;;;;;;0.73;0.50;;;;;;;-143.29;100.00;62188.47;5029997;28;20429;-90
2023/10/12 07:53:24;;;;;;;1.13;0.40;;;;;;;-143.29;100.00;62188.47;5050029;28;20029;-90
2023/10/12 07:56:00;;;;;;;0.73;0.30;;;;;;;-143.29;100.00;62188.47;5050391;28;20021;-91
2023/10/12 07:58:29;;;;;;;0.90;0.20;;;;;;;-143.29;100.00;62188.47;5050393;28;20025;-90
2023/10/12 08:01:19;;;;;;;1.00;0.22;;;;;;;-143.29;100.00;62188.47;5048677;28;20024;-91
2023/10/12 08:03:50;;;;;;;2.33;0.20;;;;;;;-143.29;100.00;62188.47;5049596;28;20029;-90
2023/10/12 08:06:29;;;;;;;1.42;0.20;;;;;;;-143.29;100.00;62188.47;5048871;28;20143;-92
2023/10/12 08:09:03;;;;;;;1.15;0.20;;;;;;;-143.29;100.00;62188.47;5063774;28;20032;-90
2023/10/12 08:11:31;;;;;;;1.52;0.30;;;;;;;-143.29;100.00;62188.47;5031350;28;20565;-90
2023/10/12 08:13:57;;;;;;;1.38;0.22;;;;;;;-143.29;100.00;62188.47;5049901;28;20029;-90
2023/10/12 08:16:26;;;;;;;0.30;0.20;;;;;;;-143.29;100.00;62188.47;5032052;28;20035;-90
2023/10/12 08:31:47;;;;;;;3.50;0.43;;;;;;;-143.29;100.00;62188.47;5044621;28;20021;-90
2023/10/12 08:39:38;;;;;;;0.63;0.20;;;;;;;-143.29;100.00;62188.47;5050938;28;20044;-91
2023/10/12 08:45:00;;;;;;;2.00;0.20;;;;;;;-143.29;100.00;62188.47;5046807;28;20025;-90
2023/10/12 08:47:40;;;;;;;0.70;0.30;;;;;;;-143.29;100.00;62188.47;5035966;28;20025;-90
2023/10/12 08:52:50;;;;;;;0.77;0.40;;;;;;;-143.29;100.00;62188.47;5051659;28;20033;-90
2023/10/12 08:55:19;;;;;;;0.50;0.10;;;;;;;-143.29;100.00;62188.47;5051457;28;20028;-91
2023/10/12 08:58:15;;;;;;;0.55;0.38;;;;;;;-143.29;100.00;62188.47;5051544;28;20479;-90
2023/10/12 09:00:44;;;;;;;0.70;0.20;;;;;;;-143.29;100.00;62188.47;5051344;28;20032;-90
2023/10/12 09:05:41;;;;;;;;;;;;;;;-143.29;100.00;62188.47;5071794;28;20028;-90
2023/10/12 09:13:36;;;;;;;0.55;0.40;;;;;;;-143.29;100.00;62188.47;5074035;28;20158;-90
2023/10/12 09:16:09;;;;;;;1.35;0.50;;;;;;;-143.29;100.00;62188.47;5075208;28;20024;-90
2023/10/12 09:18:49;;;;;;;5.47;0.63;;;;;;;-143.29;100.00;62188.47;5072697;28;20028;-89
2023/10/12 09:23:49;;;;;;;0.50;0.40;;;;;;;-143.29;100.00;62188.47;5075246;28;20482;-90
2023/10/12 09:26:15;;;;;;;1.38;0.50;;;;;;;-143.29;100.00;62188.47;5075203;28;20032;-90
2023/10/12 09:36:43;;;;;;;0.43;0.22;;;;;;;-143.29;100.00;62188.47;5075008;28;20386;-91
2023/10/12 09:39:15;;;;;;;0.45;0.20;;;;;;;-143.29;100.00;62188.47;5056830;28;20032;-90
2023/10/12 09:41:54;;;;;;;1.25;0.52;;;;;;;-143.29;100.00;62188.47;5074670;28;20036;-90
2023/10/12 09:44:26;;;;;;;1.95;0.40;;;;;;;-143.29;100.00;62188.47;5074905;28;20154;-90
2023/10/12 09:46:55;;;;;;;0.63;0.43;;;;;;;-143.29;100.00;62188.47;5065096;28;20019;-90
2023/10/12 09:49:22;;;;;;;2.97;0.40;;;;;;;-143.29;100.00;62188.47;5054499;28;20417;-91
2023/10/12 09:51:59;;;;;;;0.80;0.50;;;;;;;-143.29;100.00;62188.47;5036524;28;20021;-90
2023/10/12 09:55:23;;;;;;;0.80;0.50;;;;;;;-143.29;100.00;62188.47;5036787;28;20476;-90
2023/10/12 09:57:50;;;;;;;0.75;0.43;;;;;;;-143.29;100.00;62188.47;5053375;28;20047;-91
2023/10/12 10:00:28;;;;;;;1.60;0.50;;;;;;;-143.29;100.00;62188.47;5054456;28;20016;-90
2023/10/12 10:02:59;;;;;;;1.00;0.70;;;;;;;-143.29;100.00;62188.47;5068178;28;20390;-90
2023/10/12 10:05:51;;;;;;;1.90;0.65;;;;;;;-143.29;100.00;62188.47;5074460;28;20025;-90
2023/10/12 10:08:18;;;;;;;0.68;0.50;;;;;;;-143.29;100.00;62188.47;5074094;28;20137;-91
2023/10/12 10:10:45;;;;;;;1.48;0.60;;;;;;;-143.29;100.00;62188.47;5074407;28;20112;-90
2023/10/12 10:13:37;;;;;;;1.13;0.73;;;;;;;-143.29;100.00;62188.47;5074152;28;20025;-91
2023/10/12 10:16:08;;;;;;;1.25;0.47;;;;;;;-143.29;100.00;62188.47;5070323;28;20107;-91
2023/10/12 10:18:45;;;;;;;1.65;1.10;;;;;;;-143.29;100.00;62188.47;5053299;28;20029;-91
2023/10/12 10:21:12;;;;;;;1.35;0.85;;;;;;;-143.29;100.00;62188.47;5033944;28;20180;-90
2023/10/12 10:23:43;;;;;;;2.10;0.82;;;;;;;-143.29;100.00;62188.47;5033469;28;20017;-90
2023/10/12 10:26:20;;;;;;;2.38;0.82;;;;;;;-143.29;100.00;62188.47;5034074;28;20029;-91
2023/10/12 10:28:54;;;;;;;0.98;0.85;;;;;;;-143.29;100.00;62188.47;5034106;28;20040;-91
2023/10/12 10:31:37;;;;;;;1.77;1.20;;;;;;;-143.29;100.00;62188.47;5033907;28;20483;-90
2023/10/12 10:34:06;;;;;;;7.60;1.05;;;;;;;-143.29;100.00;62188.47;5027438;28;20043;-90
2023/10/12 10:36:36;;;;;;;5.40;1.50;;;;;;;-143.29;100.00;62188.47;5073963;28;20028;-90
2023/10/12 10:41:46;;;;;;;3.05;0.82;;;;;;;-143.29;100.00;62188.47;5073587;28;20107;-91
2023/10/12 10:44:16;;;;;;;4.25;1.25;;;;;;;-143.29;100.00;62188.47;5073556;28;20520;-91
2023/10/12 10:46:46;;;;;;;6.78;1.50;;;;;;;-143.29;100.00;62188.47;5073688;28;20027;-91
2023/10/12 10:49:16;;;;;;;1.65;0.90;;;;;;;-143.29;100.00;62188.47;5071182;28;20486;-91
2023/10/12 10:52:01;;;;;;;1.55;1.00;;;;;;;-143.29;100.00;62188.47;5073572;28;20024;-91
2023/10/12 10:54:27;;;;;;;1.48;0.98;;;;;;;-143.29;100.00;62188.47;5073561;28;20031;-91
2023/10/12 10:56:54;;;;;;;2.35;0.88;;;;;;;-143.29;100.00;62188.47;5073452;28;20096;-90
2023/10/12 10:59:19;;;;;;;1.50;1.00;;;;;;;-143.29;100.00;62188.47;5073194;28;20020;-91
2023/10/12 11:01:48;;;;;;;1.90;1.00;;;;;;;-143.29;100.00;62188.47;5073125;28;20029;-91
2023/10/12 11:04:18;;;;;;;1.30;0.90;;;;;;;-143.29;100.00;62188.47;5059806;28;20509;-90
2023/10/12 11:06:49;;;;;;;1.85;0.85;;;;;;;-143.29;100.00;62188.47;5053257;28;20030;-91
2023/10/12 11:09:17;;;;;;;1.25;0.82;;;;;;;-143.29;100.00;62188.47;5053274;28;20327;-91
2023/10/12 11:11:48;;;;;;;1.20;0.60;;;;;;;-143.29;100.00;62188.47;5052068;28;20052;-91
2023/10/12 11:14:17;;;;;;;1.50;0.60;;;;;;;-143.29;100.00;62188.47;5053021;28;20029;-91
2023/10/12 11:16:46;;;;;;;3.60;1.08;;;;;;;-143.29;100.00;62188.47;5035198;28;20403;-91
2023/10/12 11:19:13;;;;;;;2.00;1.08;;;;;;;-143.29;100.00;62188.47;5035034;28;20104;-90
2023/10/12 11:21:53;;;;;;;1.23;0.90;;;;;;;-143.29;100.00;62188.47;5052007;28;20047;-90
2023/10/12 11:24:22;;;;;;;3.05;1.10;;;;;;;-143.29;100.00;62188.47;5052717;28;20442;-91
2023/10/12 11:26:55;;;;;;;0.77;0.50;;;;;;;-143.29;100.00;62188.47;5034865;28;20025;-91
2023/10/12 11:29:24;;;;;;;2.13;0.57;;;;;;;-143.29;100.00;62188.47;5052701;28;20025;-91
2023/10/12 11:32:09;;;;;;;2.92;1.35;;;;;;;-143.29;100.00;62188.47;5052559;28;20032;-91
2023/10/12 11:34:41;;;;;;;1.48;0.80;;;;;;;-143.29;100.00;62188.47;5052808;28;20052;-90
2023/10/12 11:37:07;;;;;;;0.70;0.40;;;;;;;-143.29;100.00;62188.47;5061176;28;20023;-91
2023/10/12 11:39:43;;;;;;;1.25;0.47;;;;;;;-143.29;100.00;62188.47;5072479;28;20021;-91
2023/10/12 11:42:09;;;;;;;1.80;0.85;;;;;;;-143.29;100.00;62188.47;5052024;28;20105;-91
2023/10/12 11:44:44;;;;;;;1.67;0.40;;;;;;;-143.29;100.00;62188.47;5072612;28;20024;-91
2023/10/12 11:47:10;;;;;;;0.80;0.30;;;;;;;-143.29;100.00;62188.47;5072474;28;20028;-91
2023/10/12 11:49:55;;;;;;;2.53;0.68;;;;;;;-143.29;100.00;62188.47;5054470;28;20082;-91
2023/10/12 11:52:32;;;;;;;0.80;0.40;;;;;;;-143.29;100.00;62188.47;5072272;28;20059;-91
2023/10/12 11:55:06;;;;;;;0.88;0.35;;;;;;;-143.29;100.00;62188.47;5072236;28;20025;-90
2023/10/12 11:57:41;;;;;;;3.63;0.40;;;;;;;-143.29;100.00;62188.47;5053041;28;20501;-90
2023/10/12 12:00:52;;;;;;;0.93;0.40;;;;;;;-143.29;100.00;62188.47;5052369;28;20032;-91
2023/10/12 12:02:57;;;;;;;1.17;0.40;;;;;;;-143.29;100.00;62188.47;5041167;28;20391;-91
2023/10/12 12:05:25;;;;;;;1.05;0.50;;;;;;;-143.29;100.00;62188.47;5052259;28;20025;-91
2023/10/12 12:07:51;;;;;;;3.03;0.73;;;;;;;-143.29;100.00;62188.47;5065810;28;20043;-90
2023/10/12 12:10:38;;;;;;;1.00;0.35;;;;;;;-143.29;100.00;62188.47;5054292;28;20134;-91
2023/10/12 12:13:09;;;;;;;1.13;0.43;;;;;;;-143.29;100.00;62188.47;5071911;28;20028;-91
2023/10/12 12:15:44;;;;;;;1.27;0.60;;;;;;;-143.29;100.00;62188.47;5054507;28;20032;-90
2023/10/12 12:18:29;;;;;;;1.15;0.60;;;;;;;-143.29;100.00;62188.47;5051453;28;20482;-91
2023/10/12 12:21:02;;;;;;;0.90;0.40;;;;;;;-143.29;100.00;62188.47;5051768;28;20025;-91
2023/10/12 12:23:28;;;;;;;1.15;0.40;;;;;;;-143.29;100.00;62188.47;5051714;28;20032;-91
2023/10/12 12:26:14;;;;;;;1.38;0.47;;;;;;;-143.29;100.00;62188.47;5050927;28;20021;-91
2023/10/12 12:28:45;;;;;;;0.98;0.43;;;;;;;-143.29;100.00;62188.47;5031144;28;20033;-91
2023/10/12 12:31:14;;;;;;;1.10;0.40;;;;;;;-143.29;100.00;62188.47;5032038;28;20515;-90
2023/10/12 12:33:44;;;;;;;0.50;0.40;;;;;;;-143.29;100.00;62188.47;5031612;28;20037;-91
2023/10/12 12:36:13;;;;;;;2.30;0.70;;;;;;;-143.29;100.00;62188.47;5031780;28;20021;-92
2023/10/12 12:41:18;;;;;;;0.55;0.40;;;;;;;-143.29;100.00;62188.47;5038728;28;20037;-91
2023/10/12 12:43:49;;;;;;;0.85;0.30;;;;;;;-143.29;100.00;62188.47;5071549;28;20070;-91
2023/10/12 12:46:16;;;;;;;1.10;0.40;;;;;;;-143.29;100.00;62188.47;5071685;28;20013;-91
2023/10/12 12:48:45;;;;;;;1.30;0.50;;;;;;;-143.29;100.00;62188.47;5077629;28;20017;-91
2023/10/12 12:51:15;;;;;;;0.70;0.40;;;;;;;-143.29;100.00;62188.47;5060451;28;20028;-91
2023/10/12 12:53:42;;;;;;;2.28;0.30;;;;;;;-143.29;100.00;62188.47;5078505;28;20024;-91
2023/10/12 12:56:10;;;;;;;2.38;0.40;;;;;;;-143.29;100.00;62188.47;5070096;28;20028;-90
2023/10/12 12:58:36;;;;;;;0.40;0.40;;;;;;;-143.29;100.00;62188.47;5058206;28;20025;-90
2023/10/12 13:01:03;;;;;;;1.33;0.50;;;;;;;-143.29;100.00;62188.47;5074873;28;20032;-91
2023/10/12 13:03:29;;;;;;;1.80;0.70;;;;;;;-143.29;100.00;62188.47;5078178;28;20382;-92
2023/10/12 13:05:54;;;;;;;0.60;0.50;;;;;;;-143.29;100.00;62188.47;5060164;28;20021;-91
2023/10/12 13:08:20;;;;;;;1.35;0.70;;;;;;;-143.29;100.00;62188.47;5077962;28;20489;-90
2023/10/12 13:10:45;;;;;;;1.42;0.60;;;;;;;-143.29;100.00;62188.47;5078249;28;20032;-91
2023/10/12 13:13:12;;;;;;;1.33;0.50;;;;;;;-143.29;100.00;62188.47;5078132;28;20093;-91